Time;durP1;ratioP1;P1;durP2;ratioP2;P2;SDS_P1;SDS_P2;PMS_P1;PMS_P2;Temp;Humidity;BMP_temperature;BMP_pressure;BME280_temperature;BME280_humidity;BME280_pressure;Samples;Min_cycle;Max_cycle;Signal;HPM_P1;HPM_P2
2021/10/23 00:00:32;;;;;;;6.82;1.20;;;;;;;6.38;100.00;101150.16;5243879;28;20035;-76
2021/10/23 00:03:02;;;;;;;10.77;1.30;;;;;;;6.47;100.00;101147.47;5243936;28;20024;-78
2021/10/23 00:05:33;;;;;;;7.85;1.40;;;;;;;6.43;100.00;101145.78;5243512;28;20517;-76
2021/10/23 00:08:04;;;;;;;6.22;1.00;;;;;;;6.38;100.00;101147.56;5225156;28;20043;-76
2021/10/23 00:10:34;;;;;;;8.77;1.27;;;;;;;6.31;100.00;101151.09;5244518;28;20502;-76
2021/10/23 00:13:05;;;;;;;5.97;1.00;;;;;;;6.32;100.00;101153.69;5244271;28;20032;-77
2021/10/23 00:15:35;;;;;;;6.50;1.30;;;;;;;6.40;100.00;101161.41;5243106;28;20059;-76
2021/10/23 00:18:06;;;;;;;6.90;1.30;;;;;;;6.52;100.00;101162.13;5244010;28;20048;-75
2021/10/23 00:20:36;;;;;;;8.13;1.58;;;;;;;6.42;100.00;101164.84;5242830;28;20044;-75
2021/10/23 00:23:07;;;;;;;8.93;2.00;;;;;;;6.36;100.00;101165.75;5244303;28;20028;-77
2021/10/23 00:25:37;;;;;;;5.43;1.27;;;;;;;6.31;100.00;101156.28;5243089;28;20112;-77
2021/10/23 00:28:07;;;;;;;9.55;1.55;;;;;;;6.39;100.00;101172.66;5243037;28;20051;-77
2021/10/23 00:30:37;;;;;;;9.63;1.25;;;;;;;6.42;100.00;101165.69;5244054;28;20063;-75
2021/10/23 00:33:08;;;;;;;5.03;1.27;;;;;;;6.34;100.00;101170.09;5242254;28;20033;-77
2021/10/23 00:35:38;;;;;;;4.32;1.30;;;;;;;6.43;100.00;101172.59;5241230;28;20430;-76
2021/10/23 00:38:08;;;;;;;11.80;1.83;;;;;;;6.35;100.00;101169.22;5243317;28;20028;-76
2021/10/23 00:40:39;;;;;;;9.30;1.38;;;;;;;6.34;100.00;101167.50;5243221;28;20115;-75
2021/10/23 00:43:09;;;;;;;7.70;1.13;;;;;;;6.41;100.00;101173.50;5210797;28;20058;-75
2021/10/23 00:45:40;;;;;;;4.55;1.10;;;;;;;6.54;100.00;101175.09;5237116;28;20024;-77
2021/10/23 00:48:10;;;;;;;8.10;1.10;;;;;;;6.61;100.00;101177.59;5241446;28;20352;-79
2021/10/23 00:50:41;;;;;;;8.00;1.25;;;;;;;6.66;100.00;101185.38;5240387;28;20036;-78
2021/10/23 00:53:13;;;;;;;7.05;1.45;;;;;;;6.68;100.00;101183.59;5241067;28;20075;-77
2021/10/23 00:55:44;;;;;;;7.72;1.20;;;;;;;6.63;100.00;101190.59;5240154;28;20024;-77
2021/10/23 00:58:15;;;;;;;5.13;1.27;;;;;;;6.64;100.00;101197.50;5241155;28;20493;-78
2021/10/23 01:00:45;;;;;;;5.95;1.50;;;;;;;6.72;100.00;101196.56;5240559;28;20464;-77
2021/10/23 01:03:16;;;;;;;7.05;1.50;;;;;;;6.92;100.00;101194.59;5240732;28;20028;-76
2021/10/23 01:05:46;;;;;;;7.68;1.40;;;;;;;6.95;100.00;101204.13;5240707;28;20160;-76
2021/10/23 01:08:17;;;;;;;5.43;1.10;;;;;;;6.84;100.00;101196.44;5242573;28;20065;-77
2021/10/23 01:10:47;;;;;;;6.97;1.25;;;;;;;6.93;100.00;101200.69;5242670;28;20491;-80
2021/10/23 01:13:17;;;;;;;9.68;1.70;;;;;;;6.94;100.00;101203.25;5242026;28;20098;-75
2021/10/23 01:15:48;;;;;;;10.48;1.48;;;;;;;6.93;100.00;101204.13;5241803;28;20032;-76
2021/10/23 01:18:18;;;;;;;10.73;1.20;;;;;;;6.93;100.00;101200.69;5242055;28;20034;-75
2021/10/23 01:20:48;;;;;;;5.55;1.00;;;;;;;6.78;100.00;101206.03;5242538;28;20437;-76
2021/10/23 01:23:18;;;;;;;4.18;1.00;;;;;;;6.72;100.00;101200.88;5243171;28;20434;-76
2021/10/23 01:25:49;;;;;;;6.93;1.42;;;;;;;6.70;100.00;101216.50;5240756;28;20090;-78
2021/10/23 01:28:19;;;;;;;11.15;1.45;;;;;;;6.69;100.00;101211.28;5237266;28;20107;-78
2021/10/23 01:30:55;;;;;;;6.18;1.02;;;;;;;6.64;100.00;101213.09;5241909;28;20020;-78
2021/10/23 01:33:25;;;;;;;6.68;1.27;;;;;;;6.53;100.00;101215.78;5241917;28;20214;-79
2021/10/23 01:36:10;;;;;;;7.57;1.40;;;;;;;6.53;100.00;101217.50;5237418;28;20024;-79
2021/10/23 01:38:41;;;;;;;5.13;1.00;;;;;;;6.57;100.00;101216.63;5234472;28;20032;-77
2021/10/23 01:41:12;;;;;;;8.68;1.30;;;;;;;6.58;100.00;101223.53;5238325;28;20039;-75
2021/10/23 01:43:43;;;;;;;4.82;1.25;;;;;;;6.54;100.00;101219.22;5241956;28;20063;-78
2021/10/23 01:46:13;;;;;;;5.53;1.48;;;;;;;6.54;100.00;101222.69;5241607;28;20055;-77
2021/10/23 01:48:43;;;;;;;7.53;1.30;;;;;;;6.51;100.00;101227.06;5242176;28;20035;-78
2021/10/23 01:51:14;;;;;;;5.70;1.58;;;;;;;6.52;100.00;101229.66;5238326;28;20048;-78
2021/10/23 01:53:44;;;;;;;6.05;1.38;;;;;;;6.37;100.00;101239.28;5237433;28;20032;-75
2021/10/23 01:56:14;;;;;;;8.25;1.20;;;;;;;6.38;100.00;101241.00;5241929;28;20035;-75
2021/10/23 01:58:45;;;;;;;5.30;0.82;;;;;;;6.36;100.00;101245.34;5241532;28;20028;-77
2021/10/23 02:01:15;;;;;;;4.40;1.20;;;;;;;6.34;100.00;101244.50;5241372;28;20031;-77
2021/10/23 02:03:45;;;;;;;6.20;0.90;;;;;;;6.44;100.00;101249.59;5241354;28;20507;-79
2021/10/23 02:06:15;;;;;;;9.52;1.20;;;;;;;6.34;100.00;101260.06;5242021;28;20052;-76
2021/10/23 02:08:46;;;;;;;6.20;1.23;;;;;;;6.32;100.00;101259.22;5242079;28;20051;-75
2021/10/23 02:11:17;;;;;;;9.80;1.67;;;;;;;6.39;100.00;101251.38;5219956;28;20594;-75
2021/10/23 02:13:47;;;;;;;7.82;1.25;;;;;;;6.26;100.00;101256.69;5237186;28;20056;-78
2021/10/23 02:16:18;;;;;;;8.25;1.23;;;;;;;6.26;100.00;101251.50;5241821;28;20575;-76
2021/10/23 02:18:48;;;;;;;5.60;1.23;;;;;;;6.24;100.00;101255.84;5240920;28;20063;-77
2021/10/23 02:21:18;;;;;;;8.65;1.48;;;;;;;6.44;100.00;101264.34;5238120;28;20036;-79
2021/10/23 02:23:49;;;;;;;7.40;1.15;;;;;;;6.48;100.00;101273.81;5237203;28;20391;-77
2021/10/23 02:26:19;;;;;;;4.47;1.10;;;;;;;6.36;100.00;101274.78;5241751;28;20605;-77
2021/10/23 02:28:50;;;;;;;6.82;1.15;;;;;;;6.42;100.00;101279.06;5241044;28;20028;-80
2021/10/23 02:31:20;;;;;;;8.07;1.40;;;;;;;6.44;100.00;101290.28;5241796;28;20082;-78
2021/10/23 02:33:50;;;;;;;3.97;0.93;;;;;;;6.38;100.00;101291.19;5239922;28;20483;-76
2021/10/23 02:36:20;;;;;;;9.57;1.25;;;;;;;6.41;100.00;101293.78;5240742;28;20070;-76
2021/10/23 02:38:51;;;;;;;6.88;1.60;;;;;;;6.46;100.00;101293.75;5237065;28;20027;-76
2021/10/23 02:41:24;;;;;;;9.13;1.70;;;;;;;6.44;100.00;101298.94;5245109;28;20024;-76
2021/10/23 02:43:55;;;;;;;8.27;1.00;;;;;;;6.52;100.00;101298.88;5226626;28;20122;-77
2021/10/23 02:46:26;;;;;;;6.70;1.35;;;;;;;6.49;100.00;101291.13;5223616;28;20021;-76
2021/10/23 02:48:56;;;;;;;8.88;1.52;;;;;;;6.64;100.00;101297.06;5242190;28;20373;-78
2021/10/23 02:51:26;;;;;;;6.22;0.90;;;;;;;6.70;100.00;101301.31;5245695;28;20584;-78
2021/10/23 02:53:57;;;;;;;9.02;1.15;;;;;;;6.77;100.00;101308.22;5244894;28;20031;-76
2021/10/23 02:56:27;;;;;;;5.55;1.13;;;;;;;6.80;100.00;101313.38;5245467;28;20025;-78
2021/10/23 02:58:57;;;;;;;6.30;1.05;;;;;;;6.87;100.00;101305.50;5246457;28;20519;-77
2021/10/23 03:01:28;;;;;;;6.30;1.13;;;;;;;6.85;100.00;101307.28;5245775;28;20028;-75
2021/10/23 03:03:58;;;;;;;8.93;0.90;;;;;;;6.95;100.00;101305.44;5245008;28;20086;-78
2021/10/23 03:06:28;;;;;;;6.78;1.30;;;;;;;6.90;100.00;101309.84;5245059;28;20024;-76
2021/10/23 03:08:59;;;;;;;6.43;1.20;;;;;;;6.95;100.00;101311.47;5246434;28;20500;-78
2021/10/23 03:11:29;;;;;;;5.47;1.15;;;;;;;6.94;100.00;101312.38;5245625;28;20020;-76
2021/10/23 03:13:59;;;;;;;6.38;1.08;;;;;;;6.99;100.00;101320.13;5246126;28;20024;-78
2021/10/23 03:16:29;;;;;;;7.93;1.38;;;;;;;7.06;100.00;101321.78;5245812;28;20124;-78
2021/10/23 03:19:00;;;;;;;6.50;1.38;;;;;;;6.96;100.00;101338.34;5244970;28;20025;-78
2021/10/23 03:21:30;;;;;;;6.63;1.17;;;;;;;7.00;100.00;101330.53;5245991;28;20051;-75
2021/10/23 03:24:01;;;;;;;8.25;1.38;;;;;;;6.96;100.00;101341.78;5245172;28;20578;-77
2021/10/23 03:26:31;;;;;;;5.93;0.93;;;;;;;6.97;100.00;101348.72;5245632;28;20063;-79
2021/10/23 03:29:02;;;;;;;7.85;0.90;;;;;;;6.93;100.00;101344.41;5245180;28;20056;-78
2021/10/23 03:31:32;;;;;;;5.32;1.20;;;;;;;6.98;100.00;101340.06;5248061;28;20146;-79
2021/10/23 03:34:03;;;;;;;8.25;1.45;;;;;;;6.98;100.00;101349.59;5248516;28;20451;-78
2021/10/23 03:36:33;;;;;;;4.88;1.27;;;;;;;6.91;100.00;101347.94;5228889;28;20577;-78
2021/10/23 03:39:04;;;;;;;8.60;1.08;;;;;;;6.99;100.00;101340.91;5249587;28;20056;-77
2021/10/23 03:41:36;;;;;;;4.72;1.13;;;;;;;6.92;100.00;101347.91;5248569;28;20515;-75
2021/10/23 03:44:07;;;;;;;7.75;1.25;;;;;;;7.05;100.00;101362.50;5248213;28;20553;-77
2021/10/23 03:46:37;;;;;;;7.10;1.20;;;;;;;6.96;100.00;101356.53;5248673;28;20036;-76
2021/10/23 03:49:08;;;;;;;10.50;1.38;;;;;;;7.05;100.00;101348.63;5247829;28;20036;-78
2021/10/23 03:51:38;;;;;;;7.97;1.13;;;;;;;6.97;100.00;101343.50;5247460;28;20040;-77
2021/10/23 03:54:08;;;;;;;5.28;1.13;;;;;;;7.00;100.00;101345.22;5228792;28;20047;-79
2021/10/23 03:56:38;;;;;;;3.65;0.82;;;;;;;6.89;100.00;101352.25;5247513;28;20024;-78
2021/10/23 03:59:09;;;;;;;5.88;1.05;;;;;;;6.87;100.00;101349.69;5225770;28;20036;-78
2021/10/23 04:01:39;;;;;;;4.97;1.00;;;;;;;6.81;100.00;101351.47;5247112;28;20031;-79
2021/10/23 04:04:09;;;;;;;10.05;1.55;;;;;;;6.82;100.00;101341.06;5247275;28;20032;-78
2021/10/23 04:06:39;;;;;;;6.53;1.10;;;;;;;6.81;100.00;101356.66;5248353;28;20028;-76
2021/10/23 04:09:10;;;;;;;6.47;1.17;;;;;;;6.75;100.00;101346.31;5247357;28;20107;-77
2021/10/23 04:11:40;;;;;;;3.50;0.88;;;;;;;6.75;100.00;101341.13;5247823;28;20293;-78
2021/10/23 04:14:10;;;;;;;4.47;1.02;;;;;;;6.71;100.00;101345.47;5247007;28;20034;-78
2021/10/23 04:16:40;;;;;;;5.07;0.90;;;;;;;6.68;100.00;101344.63;5247313;28;20040;-77
2021/10/23 04:19:11;;;;;;;6.93;1.00;;;;;;;6.69;100.00;101344.63;5247033;28;20016;-79
2021/10/23 04:21:42;;;;;;;6.10;1.10;;;;;;;6.54;100.00;101333.47;5247418;28;20035;-78
2021/10/23 04:24:12;;;;;;;7.97;1.60;;;;;;;6.54;100.00;101338.66;5247345;28;20032;-78
2021/10/23 04:26:43;;;;;;;8.52;1.90;;;;;;;6.60;100.00;101342.09;5247202;28;20048;-79
2021/10/23 04:29:13;;;;;;;7.25;1.30;;;;;;;6.57;100.00;101336.06;5247000;28;20067;-79
2021/10/23 04:31:43;;;;;;;4.97;1.13;;;;;;;6.51;100.00;101346.50;5247466;28;20227;-79
2021/10/23 04:34:15;;;;;;;6.72;1.38;;;;;;;6.56;100.00;101332.59;5245878;28;20388;-78
2021/10/23 04:36:45;;;;;;;9.13;1.13;;;;;;;6.47;100.00;101353.47;5246739;28;20389;-78
2021/10/23 04:39:16;;;;;;;6.78;1.25;;;;;;;6.45;100.00;101346.53;5247125;28;20021;-78
2021/10/23 04:41:46;;;;;;;9.20;1.20;;;;;;;6.56;100.00;101353.38;5246928;28;20031;-77
2021/10/23 04:44:16;;;;;;;7.32;1.10;;;;;;;6.70;100.00;101346.34;5246704;28;20024;-78
2021/10/23 04:46:46;;;;;;;6.68;1.10;;;;;;;6.63;100.00;101346.41;5247570;28;20428;-77
2021/10/23 04:49:17;;;;;;;7.20;1.10;;;;;;;6.68;100.00;101349.81;5243430;28;20027;-76
2021/10/23 04:51:47;;;;;;;4.90;1.00;;;;;;;6.61;100.00;101353.34;5247153;28;20048;-79
2021/10/23 04:54:17;;;;;;;10.48;1.42;;;;;;;6.50;100.00;101360.34;5245795;28;20024;-81
2021/10/23 04:56:48;;;;;;;9.48;1.27;;;;;;;6.51;100.00;101360.34;5246479;28;20121;-81
2021/10/23 04:59:18;;;;;;;5.75;1.27;;;;;;;6.59;100.00;101362.91;5246258;28;20028;-79
2021/10/23 05:01:48;;;;;;;4.43;1.13;;;;;;;6.58;100.00;101369.81;5246614;28;20024;-75
2021/10/23 05:04:19;;;;;;;7.13;1.15;;;;;;;6.59;100.00;101362.91;5245136;28;20028;-77
2021/10/23 05:06:49;;;;;;;6.10;1.13;;;;;;;6.55;100.00;101363.75;5245945;28;20032;-76
2021/10/23 05:09:19;;;;;;;10.75;1.23;;;;;;;6.61;100.00;101374.97;5246569;28;20166;-75
2021/10/23 05:11:50;;;;;;;5.97;1.20;;;;;;;6.62;100.00;101370.66;5247333;28;20031;-78
2021/10/23 05:14:21;;;;;;;5.72;1.42;;;;;;;6.57;100.00;101383.66;5246352;28;20028;-78
2021/10/23 05:16:51;;;;;;;5.28;1.10;;;;;;;6.60;100.00;101385.38;5246378;28;20048;-78
2021/10/23 05:19:21;;;;;;;4.70;1.27;;;;;;;6.75;100.00;101382.69;5245711;28;20387;-77
2021/10/23 05:21:51;;;;;;;5.22;1.08;;;;;;;6.74;100.00;101388.75;5246438;28;20028;-79
2021/10/23 05:24:22;;;;;;;5.78;1.02;;;;;;;6.72;100.00;101386.16;5225078;28;20020;-78
2021/10/23 05:26:52;;;;;;;8.70;1.17;;;;;;;6.69;100.00;101390.50;5245039;28;20024;-77
2021/10/23 05:29:22;;;;;;;4.68;1.17;;;;;;;6.66;100.00;101398.31;5246086;28;20027;-77
2021/10/23 05:31:53;;;;;;;5.88;1.38;;;;;;;6.69;100.00;101393.09;5222787;28;20074;-78
2021/10/23 05:34:23;;;;;;;6.25;0.95;;;;;;;6.69;100.00;101398.28;5246036;28;20038;-78
2021/10/23 05:36:53;;;;;;;4.88;1.00;;;;;;;6.65;100.00;101401.78;5247043;28;20028;-78
2021/10/23 05:39:24;;;;;;;3.83;1.00;;;;;;;6.67;100.00;101400.91;5245690;28;20055;-77
2021/10/23 05:41:54;;;;;;;9.73;1.30;;;;;;;6.74;100.00;101407.78;5246057;28;20028;-78
2021/10/23 05:44:24;;;;;;;10.18;1.42;;;;;;;6.63;100.00;101412.19;5245470;28;20040;-77
2021/10/23 05:46:54;;;;;;;11.60;1.60;;;;;;;6.55;100.00;101415.69;5246077;28;20029;-77
2021/10/23 05:49:25;;;;;;;4.63;0.90;;;;;;;6.61;100.00;101413.94;5246827;28;20070;-78
2021/10/23 05:51:55;;;;;;;4.22;1.27;;;;;;;6.71;100.00;101412.13;5245604;28;20044;-78
2021/10/23 05:54:26;;;;;;;6.18;1.80;;;;;;;6.66;100.00;101426.88;5246235;28;20501;-78
2021/10/23 05:56:56;;;;;;;4.80;1.20;;;;;;;6.57;100.00;101425.22;5246433;28;20307;-75
2021/10/23 05:59:27;;;;;;;8.57;1.50;;;;;;;6.78;100.00;101434.63;5245906;28;20523;-76
2021/10/23 06:02:11;;;;;;;8.45;1.30;;;;;;;6.66;100.00;101426.88;5245949;28;20632;-78
2021/10/23 06:04:41;;;;;;;5.10;0.88;;;;;;;6.60;100.00;101420.00;5245620;28;20103;-75
2021/10/23 06:07:11;;;;;;;5.82;1.35;;;;;;;6.69;100.00;101430.34;5247178;28;20109;-76
2021/10/23 06:09:43;;;;;;;7.07;1.38;;;;;;;6.59;100.00;101427.81;5246430;28;20025;-78
2021/10/23 06:12:13;;;;;;;6.30;1.17;;;;;;;6.50;100.00;101456.41;5246543;28;20274;-77
2021/10/23 06:14:44;;;;;;;6.30;1.35;;;;;;;6.47;100.00;101451.25;5245316;28;20032;-78
2021/10/23 06:17:14;;;;;;;6.05;1.20;;;;;;;6.35;100.00;101453.88;5246258;28;20115;-78
2021/10/23 06:19:45;;;;;;;5.60;1.30;;;;;;;6.42;100.00;101455.59;5245310;28;20016;-76
2021/10/23 06:22:16;;;;;;;5.63;1.42;;;;;;;6.44;100.00;101459.06;5246112;28;20086;-79
2021/10/23 06:24:46;;;;;;;10.52;2.28;;;;;;;6.58;100.00;101458.09;5245382;28;20036;-78
2021/10/23 06:27:16;;;;;;;6.68;1.70;;;;;;;6.44;100.00;101462.50;5245941;28;20082;-79
2021/10/23 06:29:47;;;;;;;10.98;2.00;;;;;;;6.55;100.00;101459.84;5245942;28;20205;-78
2021/10/23 06:32:17;;;;;;;4.70;1.63;;;;;;;6.71;100.00;101474.47;5245219;28;20125;-79
2021/10/23 06:34:47;;;;;;;7.65;1.92;;;;;;;6.96;100.00;101471.72;5244434;28;20051;-75
2021/10/23 06:37:19;;;;;;;5.10;1.70;;;;;;;6.98;100.00;101479.50;5244677;28;20421;-76
2021/10/23 06:39:50;;;;;;;7.60;1.60;;;;;;;6.99;100.00;101481.22;5240390;28;20070;-78
2021/10/23 06:42:21;;;;;;;6.38;1.30;;;;;;;7.08;100.00;101483.78;5244685;28;20024;-78
2021/10/23 06:44:51;;;;;;;12.88;1.40;;;;;;;7.19;100.00;101484.56;5244209;28;20020;-79
2021/10/23 06:47:21;;;;;;;5.50;1.33;;;;;;;7.14;100.00;101494.13;5245750;28;20029;-79
2021/10/23 06:49:53;;;;;;;7.53;1.30;;;;;;;7.11;100.00;101492.41;5245147;28;20024;-79
2021/10/23 06:52:25;;;;;;;5.15;1.30;;;;;;;7.28;100.00;101500.94;5219885;28;20032;-78
2021/10/23 06:54:56;;;;;;;6.70;1.40;;;;;;;7.22;100.00;101504.44;5245018;28;20025;-79
2021/10/23 06:57:26;;;;;;;7.63;1.25;;;;;;;7.42;100.00;101493.91;5224176;28;20024;-79
2021/10/23 06:59:56;;;;;;;6.82;1.25;;;;;;;7.42;100.00;101496.50;5226266;28;20462;-76
2021/10/23 07:02:27;;;;;;;9.15;1.42;;;;;;;7.58;100.00;101511.09;5241031;28;20032;-77
2021/10/23 07:04:57;;;;;;;8.50;1.60;;;;;;;7.38;100.00;101511.25;5241531;28;20039;-77
2021/10/23 07:07:27;;;;;;;6.35;1.08;;;;;;;7.28;100.00;101521.75;5242032;28;20050;-78
2021/10/23 07:09:57;;;;;;;7.45;1.05;;;;;;;7.56;100.00;101529.31;5241526;28;20067;-78
2021/10/23 07:12:28;;;;;;;5.65;1.20;;;;;;;7.51;100.00;101535.44;5241655;28;20043;-78
2021/10/23 07:14:58;;;;;;;10.73;1.55;;;;;;;7.54;100.00;101541.47;5241339;28;20431;-76
2021/10/23 07:17:29;;;;;;;7.45;1.65;;;;;;;7.57;100.00;101546.69;5240923;28;20032;-77
2021/10/23 07:19:59;;;;;;;6.43;1.38;;;;;;;7.66;100.00;101549.19;5241185;28;20395;-75
2021/10/23 07:22:29;;;;;;;9.63;1.67;;;;;;;7.60;100.00;101549.25;5240582;28;20028;-77
2021/10/23 07:25:00;;;;;;;6.82;1.20;;;;;;;7.64;100.00;101560.47;5242236;28;20031;-77
2021/10/23 07:27:31;;;;;;;4.88;1.20;;;;;;;7.72;100.00;101563.88;5242815;28;20035;-78
2021/10/23 07:30:09;;;;;;;2.38;0.90;;;;;;;7.88;100.00;101571.53;5244391;28;20500;-77
2021/10/23 07:32:40;;;;;;;4.38;1.10;;;;;;;8.11;99.20;101577.41;5244962;28;20107;-76
2021/10/23 07:35:11;;;;;;;4.75;1.40;;;;;;;8.11;98.95;101571.31;5244569;28;20054;-77
2021/10/23 07:37:42;;;;;;;5.35;1.20;;;;;;;8.25;98.43;101578.16;5244534;28;20028;-76
2021/10/23 07:40:13;;;;;;;7.15;1.52;;;;;;;8.28;98.16;101574.66;5244667;28;20028;-75
2021/10/23 07:42:44;;;;;;;7.50;1.88;;;;;;;8.17;98.86;101585.16;5243848;28;20176;-75
2021/10/23 07:45:14;;;;;;;9.23;1.40;;;;;;;8.19;98.55;101591.25;5243739;28;20035;-76
2021/10/23 07:47:45;;;;;;;6.78;1.63;;;;;;;8.26;98.82;101590.31;5244517;28;20031;-77
2021/10/23 07:50:16;;;;;;;4.80;1.15;;;;;;;9.11;95.23;101587.56;5244856;28;20131;-76
2021/10/23 07:52:46;;;;;;;6.00;1.48;;;;;;;9.91;90.00;101588.06;5244174;28;20127;-78
2021/10/23 07:55:17;;;;;;;5.75;1.58;;;;;;;10.60;86.44;101581.59;5225532;28;20082;-78
2021/10/23 07:57:47;;;;;;;4.43;1.27;;;;;;;10.15;87.40;101585.91;5244154;28;20021;-77
2021/10/23 08:00:17;;;;;;;5.95;1.50;;;;;;;10.60;86.00;101585.06;5225793;28;20032;-76
2021/10/23 08:02:59;;;;;;;7.40;1.35;;;;;;;11.77;82.21;101596.44;5244198;28;20031;-77
2021/10/23 08:05:33;;;;;;;7.18;1.25;;;;;;;11.71;81.54;101611.44;5240879;28;20119;-78
2021/10/23 08:08:05;;;;;;;2.85;0.90;;;;;;;12.66;78.66;101605.44;5244186;28;20483;-78
2021/10/23 08:10:35;;;;;;;4.22;1.27;;;;;;;13.17;76.14;101619.72;5239737;28;20386;-77
2021/10/23 08:13:06;;;;;;;5.20;1.20;;;;;;;12.86;76.12;101618.00;5240872;28;20032;-78
2021/10/23 08:15:37;;;;;;;5.97;1.58;;;;;;;13.41;73.75;101619.84;5244380;28;20024;-78
2021/10/23 08:18:08;;;;;;;5.38;1.40;;;;;;;12.49;76.85;101626.00;5244465;28;20025;-76
2021/10/23 08:20:39;;;;;;;8.35;1.50;;;;;;;11.81;79.55;101631.28;5245004;28;20297;-78
2021/10/23 08:23:09;;;;;;;5.43;1.20;;;;;;;11.66;82.03;101647.34;5245628;28;20381;-77
2021/10/23 08:25:39;;;;;;;6.05;1.45;;;;;;;12.06;78.64;101651.63;5244030;28;20020;-76
2021/10/23 08:28:10;;;;;;;7.60;1.08;;;;;;;11.73;79.61;101654.16;5246139;28;20105;-78
2021/10/23 08:30:41;;;;;;;8.20;1.58;;;;;;;11.72;79.87;101655.94;5244761;28;20024;-78
2021/10/23 08:33:11;;;;;;;8.10;2.08;;;;;;;12.05;80.19;101652.50;5243694;28;20137;-77
2021/10/23 08:35:41;;;;;;;6.25;1.40;;;;;;;12.53;77.85;101651.28;5244428;28;20476;-78
2021/10/23 08:38:13;;;;;;;5.90;1.02;;;;;;;12.49;77.89;101665.34;5245138;28;20020;-77
2021/10/23 08:40:44;;;;;;;8.43;1.15;;;;;;;11.92;80.36;101676.44;5220711;28;20033;-77
2021/10/23 08:43:14;;;;;;;8.32;1.10;;;;;;;11.79;81.42;101681.06;5245163;28;20164;-77
2021/10/23 08:45:45;;;;;;;7.70;1.33;;;;;;;11.88;81.22;101665.16;5244797;28;20158;-77
2021/10/23 08:48:16;;;;;;;8.18;1.23;;;;;;;12.06;81.72;101664.72;5245064;28;20046;-77
2021/10/23 08:50:47;;;;;;;6.20;1.35;;;;;;;11.27;83.75;101675.22;5245954;28;20051;-77
2021/10/23 08:53:19;;;;;;;6.50;1.38;;;;;;;10.73;85.29;101674.59;5244888;28;20044;-78
2021/10/23 08:55:51;;;;;;;4.22;1.52;;;;;;;10.40;87.63;101680.41;5239092;28;20409;-78
2021/10/23 08:58:21;;;;;;;5.07;1.17;;;;;;;10.03;89.54;101684.53;5277807;22;20441;-79
2021/10/23 09:00:53;;;;;;;4.63;1.10;;;;;;;9.98;89.66;101676.72;5249600;28;20020;-80
2021/10/23 09:03:23;;;;;;;7.70;2.17;;;;;;;10.27;90.83;101671.06;5253487;28;20017;-80
2021/10/23 09:05:54;;;;;;;8.93;2.53;;;;;;;10.60;89.31;101684.41;5255683;28;20019;-78
2021/10/23 09:08:26;;;;;;;10.73;1.85;;;;;;;10.62;89.22;101680.00;5263751;28;20426;-79
2021/10/23 09:10:57;;;;;;;12.18;3.38;;;;;;;10.50;88.94;101687.22;5265474;28;20016;-79
2021/10/23 09:13:34;;;;;;;7.35;1.35;;;;;;;10.54;90.34;101681.03;5266377;28;20025;-79
2021/10/23 09:16:20;;;;;;;8.25;2.10;;;;;;;10.61;89.44;101685.25;5263880;28;20031;-80
2021/10/23 09:18:50;;;;;;;5.38;1.45;;;;;;;10.53;89.66;101690.63;5257246;28;20092;-80
2021/10/23 09:21:22;;;;;;;7.10;2.17;;;;;;;10.49;89.46;101690.72;5261330;28;20504;-79
2021/10/23 09:23:53;;;;;;;8.50;2.42;;;;;;;10.31;90.73;101696.25;5268042;28;20066;-79
2021/10/23 09:26:36;;;;;;;10.90;3.30;;;;;;;10.19;91.98;101699.06;5268245;28;20032;-79
2021/10/23 09:29:16;;;;;;;4.88;1.67;;;;;;;10.43;90.22;101706.50;5243691;28;20024;-79
2021/10/23 09:31:48;;;;;;;6.65;1.65;;;;;;;10.25;90.23;101701.56;5247367;28;20031;-79
2021/10/23 09:34:20;;;;;;;9.77;2.25;;;;;;;10.41;90.78;101703.03;5251430;28;20080;-79
2021/10/23 09:36:53;;;;;;;9.85;2.42;;;;;;;10.45;90.39;101707.31;5262475;28;20384;-79
2021/10/23 09:39:35;;;;;;;4.90;1.10;;;;;;;10.42;90.06;101707.38;5264622;28;20028;-79
2021/10/23 09:42:17;;;;;;;5.50;1.40;;;;;;;10.86;91.03;101707.47;5258352;28;20032;-80
2021/10/23 09:45:03;;;;;;;4.18;1.38;;;;;;;11.21;88.37;101712.00;5257779;28;20020;-80
2021/10/23 09:47:38;;;;;;;6.03;1.40;;;;;;;11.32;87.03;101723.13;5255824;28;20036;-79
2021/10/23 09:50:14;;;;;;;4.55;1.77;;;;;;;11.30;87.36;101713.56;5252276;28;20020;-80
2021/10/23 09:53:01;;;;;;;7.80;1.13;;;;;;;11.45;87.58;101703.63;5269158;28;20298;-80
2021/10/23 09:55:52;;;;;;;4.20;1.00;;;;;;;11.32;87.84;101707.41;5253470;28;20136;-80
2021/10/23 09:58:23;;;;;;;5.90;1.38;;;;;;;11.41;88.15;101712.44;5246647;28;20028;-80
2021/10/23 10:00:54;;;;;;;5.97;1.42;;;;;;;11.46;88.30;101715.81;5247840;28;20086;-80
2021/10/23 10:03:25;;;;;;;7.10;1.40;;;;;;;11.16;89.04;101719.06;5247642;28;20024;-79
2021/10/23 10:05:56;;;;;;;3.50;1.10;;;;;;;11.56;88.51;101725.25;5269371;28;20116;-80
2021/10/23 10:08:27;;;;;;;9.57;2.40;;;;;;;11.48;87.89;101719.25;5256446;28;20025;-80
2021/10/23 10:10:57;;;;;;;3.90;1.33;;;;;;;11.57;87.71;101731.31;5247775;28;20358;-80
2021/10/23 10:13:28;;;;;;;11.93;3.75;;;;;;;11.42;89.04;101736.88;5259106;28;20029;-80
2021/10/23 10:15:58;;;;;;;5.22;1.48;;;;;;;11.56;89.05;101735.72;5265027;28;20033;-80
2021/10/23 10:18:29;;;;;;;7.20;2.03;;;;;;;11.60;88.59;101741.75;5256857;28;20091;-80
2021/10/23 10:21:00;;;;;;;8.27;2.42;;;;;;;11.71;88.17;101735.41;5250829;28;20028;-80
2021/10/23 10:23:32;;;;;;;9.55;3.35;;;;;;;11.80;87.75;101739.56;5251961;28;20039;-80
2021/10/23 10:26:23;;;;;;;14.48;5.85;;;;;;;11.63;88.79;101739.06;5263807;28;20078;-80
2021/10/23 10:32:03;;;;;;;13.80;4.13;;;;;;;11.69;86.33;101737.19;5258332;28;20036;-80
2021/10/23 10:42:57;;;;;;;8.18;0.95;;;;;;;12.14;85.01;101741.38;5264326;28;20098;-80
2021/10/23 10:45:42;;;;;;;9.77;1.38;;;;;;;12.11;85.20;101746.69;5244550;28;20020;-80
2021/10/23 10:48:17;;;;;;;8.10;1.40;;;;;;;11.96;85.82;101741.81;5268777;28;20107;-79
2021/10/23 10:50:55;;;;;;;4.03;1.00;;;;;;;11.91;85.93;101745.41;5261960;28;20078;-80
2021/10/23 10:53:39;;;;;;;5.90;1.33;;;;;;;11.86;86.25;101740.31;5262586;28;20024;-81
2021/10/23 10:56:14;;;;;;;7.72;1.40;;;;;;;12.01;84.49;101758.31;5266606;28;20571;-80
2021/10/23 10:58:57;;;;;;;4.07;1.20;;;;;;;11.94;82.47;101751.47;5262317;28;20035;-80
2021/10/23 11:01:32;;;;;;;4.63;1.10;;;;;;;11.90;82.02;101744.56;5258319;28;20079;-80
2021/10/23 11:04:05;;;;;;;5.10;1.13;;;;;;;12.00;82.14;101748.72;5255303;28;20089;-81
2021/10/23 11:06:35;;;;;;;5.03;0.88;;;;;;;12.31;82.43;101747.09;5270193;28;20093;-80
2021/10/23 11:09:11;;;;;;;3.95;0.98;;;;;;;12.05;82.10;101741.59;5271147;28;20033;-80
2021/10/23 11:11:44;;;;;;;1.85;0.65;;;;;;;12.38;81.75;101751.31;5270273;28;20095;-81
2021/10/23 11:16:56;;;;;;;4.38;1.35;;;;;;;12.36;81.93;101753.09;5261092;28;20056;-80
2021/10/23 11:19:32;;;;;;;2.40;1.10;;;;;;;12.26;82.27;101746.34;5270970;28;20035;-81
2021/10/23 11:22:13;;;;;;;6.05;1.30;;;;;;;12.35;81.28;101751.38;5269373;28;20183;-79
2021/10/23 11:25:03;;;;;;;8.45;1.58;;;;;;;12.56;81.76;101750.84;5259770;28;20035;-80
2021/10/23 11:27:43;;;;;;;3.10;1.27;;;;;;;12.36;81.59;101740.00;5269622;28;20051;-80
2021/10/23 11:30:22;;;;;;;4.38;1.20;;;;;;;12.01;81.52;101744.31;5269351;28;20032;-79
2021/10/23 11:32:56;;;;;;;6.25;1.63;;;;;;;11.92;81.82;101748.00;5267938;28;20020;-80
2021/10/23 11:35:39;;;;;;;6.43;1.35;;;;;;;11.95;81.54;101745.31;5259331;28;20020;-80
2021/10/23 11:38:23;;;;;;;3.90;1.05;;;;;;;11.96;81.22;101744.41;5264370;28;20115;-80
2021/10/23 11:40:57;;;;;;;5.25;1.00;;;;;;;11.89;81.62;101745.47;5248035;28;20052;-80
2021/10/23 11:43:30;;;;;;;3.13;1.07;;;;;;;12.03;81.13;101748.66;5253821;28;20036;-80
2021/10/23 11:46:01;;;;;;;6.63;1.20;;;;;;;11.96;82.40;101749.66;5267423;28;20032;-80
2021/10/23 11:48:33;;;;;;;5.97;1.33;;;;;;;12.02;82.14;101749.53;5246536;28;20040;-80
2021/10/23 11:51:03;;;;;;;6.40;1.02;;;;;;;12.07;82.62;101754.66;5256145;28;20032;-80
2021/10/23 11:53:34;;;;;;;6.30;1.20;;;;;;;12.13;81.67;101752.75;5268167;28;20039;-81
2021/10/23 11:56:09;;;;;;;4.93;1.20;;;;;;;12.19;81.64;101757.88;5264556;28;20024;-80
2021/10/23 11:58:41;;;;;;;4.15;1.30;;;;;;;12.08;78.38;101764.22;5257880;28;20083;-80